createdAt,value
2023-08-20T00:01:57.360Z,17.91
2023-08-20T00:04:29.117Z,17.86
2023-08-20T00:06:57.070Z,17.87
2023-08-20T00:09:27.700Z,17.87
2023-08-20T00:11:55.202Z,17.89
2023-08-20T00:15:08.002Z,17.88
2023-08-20T00:17:40.457Z,17.88
2023-08-20T00:20:17.689Z,17.88
2023-08-20T00:22:46.838Z,17.91
2023-08-20T00:25:15.367Z,17.91
2023-08-20T00:27:43.278Z,17.91
2023-08-20T00:30:11.798Z,17.92
2023-08-20T00:32:40.173Z,17.90
2023-08-20T00:35:11.027Z,17.87
2023-08-20T00:37:38.580Z,17.90
2023-08-20T00:40:06.911Z,17.90
2023-08-20T00:42:34.837Z,17.90
2023-08-20T00:45:03.582Z,17.90
2023-08-20T00:47:31.354Z,17.88
2023-08-20T00:49:59.454Z,17.89
2023-08-20T00:52:27.034Z,17.88
2023-08-20T00:54:55.544Z,17.78
2023-08-20T00:57:24.017Z,17.80
2023-08-20T00:59:52.505Z,17.79
2023-08-20T01:02:21.132Z,17.82
2023-08-20T01:04:50.239Z,17.81
2023-08-20T01:07:48.294Z,17.77
2023-08-20T01:10:26.268Z,17.80
2023-08-20T01:12:54.542Z,17.79
2023-08-20T01:15:23.646Z,17.74
2023-08-20T01:17:51.563Z,17.75
2023-08-20T01:20:20.172Z,17.75
2023-08-20T01:23:12.471Z,17.78
2023-08-20T01:25:58.803Z,17.81
2023-08-20T01:28:27.318Z,17.78
2023-08-20T01:30:56.865Z,17.78
2023-08-20T01:33:27.828Z,17.77
2023-08-20T01:35:56.435Z,17.75
2023-08-20T01:38:24.371Z,17.78
2023-08-20T01:40:52.022Z,17.81
2023-08-20T01:43:19.861Z,17.82
2023-08-20T01:45:47.567Z,17.83
2023-08-20T01:48:15.411Z,17.76
2023-08-20T01:50:43.244Z,17.82
2023-08-20T01:53:10.994Z,17.80
2023-08-20T01:55:38.660Z,17.83
2023-08-20T01:58:06.334Z,17.85
2023-08-20T02:00:35.019Z,17.83
2023-08-20T02:03:03.458Z,17.85
2023-08-20T02:05:31.495Z,17.85
2023-08-20T02:07:59.397Z,17.86
2023-08-20T02:10:27.192Z,17.87
2023-08-20T02:12:55.053Z,17.87
2023-08-20T02:15:22.568Z,17.88
2023-08-20T02:17:50.127Z,17.89
2023-08-20T02:20:17.932Z,17.82
2023-08-20T02:22:45.381Z,17.86
2023-08-20T02:25:12.937Z,17.88
2023-08-20T02:27:40.396Z,17.88
2023-08-20T02:30:08.703Z,17.79
2023-08-20T02:32:36.381Z,17.83
2023-08-20T02:35:06.601Z,17.83
2023-08-20T02:37:34.404Z,17.86
2023-08-20T02:40:02.212Z,17.86
2023-08-20T02:42:29.999Z,17.86
2023-08-20T02:44:57.520Z,17.87
2023-08-20T02:47:25.294Z,17.88
2023-08-20T02:49:53.089Z,17.87
2023-08-20T02:52:21.205Z,17.87
2023-08-20T02:54:48.793Z,17.86
2023-08-20T02:57:16.575Z,17.70
2023-08-20T02:59:44.018Z,17.78
2023-08-20T03:02:11.515Z,17.79
2023-08-20T03:04:39.055Z,17.77
2023-08-20T03:07:06.584Z,17.73
2023-08-20T03:09:34.174Z,17.80
2023-08-20T03:12:01.732Z,17.83
2023-08-20T03:14:29.186Z,17.81
2023-08-20T03:16:56.655Z,17.82
2023-08-20T03:19:24.399Z,17.87
2023-08-20T03:21:51.925Z,17.86
2023-08-20T03:24:19.631Z,17.88
2023-08-20T03:26:48.745Z,17.88
2023-08-20T03:29:16.074Z,17.83
2023-08-20T03:31:43.521Z,17.85
2023-08-20T03:34:11.288Z,17.87
2023-08-20T03:36:39.070Z,17.91
2023-08-20T03:39:06.838Z,17.91
2023-08-20T03:41:34.568Z,17.92
2023-08-20T03:44:02.488Z,17.92
2023-08-20T03:46:30.042Z,17.93
2023-08-20T03:48:57.795Z,17.93
2023-08-20T03:51:25.241Z,17.95
2023-08-20T03:53:52.662Z,17.96
2023-08-20T03:56:20.168Z,17.91
2023-08-20T03:58:47.699Z,17.92
2023-08-20T04:01:15.155Z,17.93
2023-08-20T04:03:42.714Z,17.97
2023-08-20T04:06:10.196Z,17.96
2023-08-20T04:08:37.783Z,17.97
2023-08-20T04:11:05.495Z,17.99
2023-08-20T04:13:32.972Z,17.88
2023-08-20T04:16:00.761Z,17.86
2023-08-20T04:18:28.403Z,17.94
2023-08-20T04:20:56.786Z,17.96
2023-08-20T04:23:24.426Z,17.99
2023-08-20T04:25:52.152Z,17.94
2023-08-20T04:28:19.869Z,17.95
2023-08-20T04:30:47.581Z,17.93
2023-08-20T04:33:15.299Z,17.98
2023-08-20T04:35:43.429Z,17.99
2023-08-20T04:38:11.130Z,18.00
2023-08-20T04:40:38.883Z,18.00
2023-08-20T04:43:06.482Z,18.03
2023-08-20T04:45:33.979Z,18.05
2023-08-20T04:48:01.798Z,18.08
2023-08-20T04:50:29.591Z,18.09
2023-08-20T04:52:57.375Z,17.98
2023-08-20T04:55:25.064Z,18.04
2023-08-20T04:57:52.524Z,18.03
2023-08-20T05:00:20.613Z,18.05
2023-08-20T05:02:48.363Z,18.06
2023-08-20T05:05:15.945Z,18.10
2023-08-20T05:07:43.414Z,18.08
2023-08-20T05:10:11.157Z,18.06
2023-08-20T05:12:38.968Z,18.08
2023-08-20T05:15:07.190Z,18.02
2023-08-20T05:17:35.144Z,18.02
2023-08-20T05:20:03.470Z,18.02
2023-08-20T05:22:31.404Z,17.98
2023-08-20T05:24:59.423Z,17.99
2023-08-20T05:27:27.202Z,18.01
2023-08-20T05:29:54.682Z,17.94
2023-08-20T05:32:22.452Z,17.99
2023-08-20T05:34:49.921Z,17.97
2023-08-20T05:37:17.492Z,18.01
2023-08-20T05:39:45.727Z,18.04
2023-08-20T05:42:13.608Z,18.04
2023-08-20T05:44:41.163Z,18.07
2023-08-20T05:47:09.027Z,18.08
2023-08-20T05:49:37.216Z,18.09
2023-08-20T05:52:04.922Z,18.07
2023-08-20T05:54:32.633Z,17.99
2023-08-20T05:57:00.286Z,18.07
2023-08-20T05:59:27.768Z,18.13
2023-08-20T06:01:55.848Z,18.09
2023-08-20T06:04:23.510Z,18.11
2023-08-20T06:06:50.933Z,18.06
2023-08-20T06:09:18.689Z,17.98
2023-08-20T06:11:46.250Z,17.99
2023-08-20T06:14:14.023Z,17.97
2023-08-20T06:16:41.809Z,18.01
2023-08-20T06:19:09.689Z,18.02
2023-08-20T06:21:37.468Z,18.03
2023-08-20T06:24:05.660Z,18.07
2023-08-20T06:26:33.469Z,18.11
2023-08-20T06:29:01.245Z,18.17
2023-08-20T06:31:28.993Z,18.25
2023-08-20T06:33:56.536Z,18.16
2023-08-20T06:36:24.453Z,18.19
2023-08-20T06:38:52.162Z,18.28
2023-08-20T06:41:19.734Z,18.36
2023-08-20T06:43:47.277Z,18.42
2023-08-20T06:46:14.864Z,18.29
2023-08-20T06:48:42.411Z,18.31
2023-08-20T06:51:13.252Z,18.41
2023-08-20T06:53:42.037Z,18.40
2023-08-20T06:56:10.244Z,18.40
2023-08-20T06:58:40.722Z,18.36
2023-08-20T07:01:09.098Z,18.38
2023-08-20T07:03:43.210Z,18.38
2023-08-20T07:06:12.016Z,18.38
2023-08-20T07:08:40.692Z,18.47
2023-08-20T07:11:08.616Z,18.56
2023-08-20T07:13:36.699Z,18.56
2023-08-20T07:16:04.969Z,18.59
2023-08-20T07:18:32.846Z,18.61
2023-08-20T07:21:00.631Z,18.76
2023-08-20T07:23:28.237Z,18.87
2023-08-20T07:26:06.226Z,18.83
2023-08-20T07:28:53.410Z,18.81
2023-08-20T07:31:22.042Z,18.68
2023-08-20T07:33:50.500Z,18.60
2023-08-20T07:36:19.222Z,18.63
2023-08-20T07:38:46.962Z,18.67
2023-08-20T07:41:15.068Z,18.66
2023-08-20T07:43:42.853Z,18.60
2023-08-20T07:46:11.359Z,18.65
2023-08-20T07:48:39.552Z,18.63
2023-08-20T07:51:07.515Z,18.67
2023-08-20T07:53:35.874Z,18.59
2023-08-20T07:56:03.751Z,18.63
2023-08-20T07:58:31.314Z,18.61
2023-08-20T08:00:59.477Z,18.51
2023-08-20T08:03:28.372Z,18.59
2023-08-20T08:05:56.686Z,18.55
2023-08-20T08:08:24.676Z,18.69
2023-08-20T08:10:52.420Z,18.85
2023-08-20T08:13:23.056Z,18.90
2023-08-20T08:15:51.481Z,18.94
2023-08-20T08:18:20.508Z,19.16
2023-08-20T08:20:48.071Z,19.26
2023-08-20T08:23:15.704Z,19.36
2023-08-20T08:25:43.173Z,19.38
2023-08-20T08:28:10.676Z,19.33
2023-08-20T08:30:38.994Z,19.15
2023-08-20T08:33:06.763Z,19.16
2023-08-20T08:35:34.619Z,19.19
2023-08-20T08:38:02.774Z,19.21
2023-08-20T08:40:31.375Z,19.21
2023-08-20T08:42:59.216Z,19.21
2023-08-20T08:45:27.701Z,19.24
2023-08-20T08:47:56.422Z,19.18
2023-08-20T08:50:24.522Z,19.30
2023-08-20T08:52:54.848Z,19.36
2023-08-20T08:55:22.530Z,19.40
2023-08-20T08:57:50.320Z,19.42
2023-08-20T09:00:18.323Z,19.42
2023-08-20T09:02:45.849Z,19.44
2023-08-20T09:05:16.552Z,19.47
2023-08-20T09:07:45.971Z,19.50
2023-08-20T09:10:13.700Z,19.45
2023-08-20T09:12:41.170Z,19.45
2023-08-20T09:15:13.123Z,19.46
2023-08-20T09:17:43.131Z,19.50
2023-08-20T09:20:11.039Z,19.55
2023-08-20T09:22:38.940Z,19.64
2023-08-20T09:25:06.800Z,19.66
2023-08-20T09:27:41.887Z,19.72
2023-08-20T09:30:10.075Z,19.80
2023-08-20T09:32:37.894Z,19.88
2023-08-20T09:35:06.081Z,19.75
2023-08-20T09:37:34.778Z,19.66
2023-08-20T09:40:03.327Z,19.75
2023-08-20T09:42:34.023Z,19.71
2023-08-20T09:45:05.032Z,19.76
2023-08-20T09:47:38.187Z,19.87
2023-08-20T09:50:11.561Z,19.87
2023-08-20T09:52:45.585Z,19.77
2023-08-20T09:55:23.355Z,19.76
2023-08-20T09:57:51.644Z,19.75
2023-08-20T10:00:19.349Z,19.88
2023-08-20T10:02:47.434Z,19.91
2023-08-20T10:05:16.340Z,19.95
2023-08-20T10:07:44.709Z,19.93
2023-08-20T10:10:15.124Z,19.94
2023-08-20T10:12:44.885Z,19.86
2023-08-20T10:15:14.897Z,19.94
2023-08-20T10:17:44.034Z,19.76
2023-08-20T10:20:15.989Z,19.91
2023-08-20T10:22:45.472Z,20.10
2023-08-20T10:25:41.115Z,19.96
2023-08-20T10:28:21.642Z,20.06
2023-08-20T10:31:09.511Z,20.11
2023-08-20T10:33:40.084Z,20.07
2023-08-20T10:36:15.113Z,20.08
2023-08-20T10:38:42.673Z,19.93
2023-08-20T10:41:10.569Z,19.81
2023-08-20T10:43:49.605Z,19.91
2023-08-20T10:46:22.012Z,19.94
2023-08-20T10:48:51.204Z,20.00
2023-08-20T10:51:34.594Z,20.03
2023-08-20T10:54:02.678Z,20.16
2023-08-20T10:56:45.404Z,20.12
2023-08-20T10:59:17.678Z,20.16
2023-08-20T11:01:47.508Z,20.29
2023-08-20T11:04:21.642Z,20.32
2023-08-20T11:06:56.061Z,20.29
2023-08-20T11:09:25.467Z,20.29
2023-08-20T11:11:53.457Z,20.15
2023-08-20T11:14:22.677Z,20.11
2023-08-20T11:16:51.246Z,20.02
2023-08-20T11:19:25.220Z,20.06
2023-08-20T11:21:53.281Z,20.08
2023-08-20T11:24:22.077Z,20.03
2023-08-20T11:26:49.883Z,19.97
2023-08-20T11:29:21.367Z,19.95
2023-08-20T11:31:50.130Z,19.95
2023-08-20T11:34:19.796Z,20.05
2023-08-20T11:36:47.838Z,20.24
2023-08-20T11:39:15.350Z,20.21
2023-08-20T11:41:45.805Z,20.09
2023-08-20T11:44:21.647Z,20.00
2023-08-20T11:46:49.711Z,20.05
2023-08-20T11:49:17.720Z,20.07
2023-08-20T11:51:50.872Z,20.02
2023-08-20T11:54:19.770Z,20.00
2023-08-20T11:56:52.048Z,19.94
2023-08-20T11:59:22.627Z,19.93
2023-08-20T12:01:53.718Z,19.99
2023-08-20T12:04:26.162Z,20.03
2023-08-20T12:07:09.167Z,20.07
2023-08-20T12:09:37.119Z,20.08
2023-08-20T12:12:07.815Z,20.09
2023-08-20T12:14:36.165Z,20.12
2023-08-20T12:17:07.016Z,20.16
2023-08-20T12:19:34.742Z,20.19
2023-08-20T12:22:02.553Z,20.23
2023-08-20T12:24:30.666Z,20.32
2023-08-20T12:26:58.573Z,20.40
2023-08-20T12:29:26.199Z,20.40
2023-08-20T12:31:53.718Z,20.32
2023-08-20T12:34:22.845Z,20.35
2023-08-20T12:36:50.964Z,20.24
2023-08-20T12:39:19.645Z,20.22
2023-08-20T12:41:47.193Z,20.30
2023-08-20T12:44:14.824Z,20.26
2023-08-20T12:46:42.287Z,20.37
2023-08-20T12:49:09.819Z,20.46
2023-08-20T12:51:37.623Z,20.53
2023-08-20T12:54:05.297Z,20.47
2023-08-20T12:56:33.211Z,20.48
2023-08-20T12:59:00.770Z,20.55
2023-08-20T13:01:28.564Z,20.52
2023-08-20T13:03:56.681Z,20.56
2023-08-20T13:06:25.026Z,20.58
2023-08-20T13:08:53.307Z,20.52
2023-08-20T13:11:21.458Z,20.54
2023-08-20T13:13:49.317Z,20.49
2023-08-20T13:16:19.625Z,20.37
2023-08-20T13:18:47.362Z,20.41
2023-08-20T13:21:15.131Z,20.52
2023-08-20T13:23:42.853Z,20.57
2023-08-20T13:26:11.104Z,20.52
2023-08-20T13:28:38.926Z,20.43
2023-08-20T13:31:07.230Z,20.51
2023-08-20T13:33:34.767Z,20.59
2023-08-20T13:36:02.999Z,20.59
2023-08-20T13:38:30.747Z,20.49
2023-08-20T13:40:59.132Z,20.58
2023-08-20T13:43:26.706Z,20.51
2023-08-20T13:45:54.219Z,20.52
2023-08-20T13:48:21.753Z,20.46
2023-08-20T13:50:50.059Z,20.53
2023-08-20T13:53:17.936Z,20.55
2023-08-20T13:55:46.010Z,20.56
2023-08-20T13:58:13.526Z,20.33
2023-08-20T14:00:41.684Z,20.45
2023-08-20T14:03:09.390Z,20.48
2023-08-20T14:05:37.274Z,20.49
2023-08-20T14:08:05.399Z,20.41
2023-08-20T14:10:33.112Z,20.18
2023-08-20T14:13:00.551Z,20.21
2023-08-20T14:15:28.092Z,20.25
2023-08-20T14:17:55.650Z,20.23
2023-08-20T14:20:23.315Z,20.36
2023-08-20T14:22:50.805Z,20.26
2023-08-20T14:25:18.254Z,20.22
2023-08-20T14:27:45.663Z,20.08
2023-08-20T14:30:13.168Z,20.19
2023-08-20T14:32:41.606Z,20.04
2023-08-20T14:35:11.113Z,20.04
2023-08-20T14:37:38.866Z,20.08
2023-08-20T14:40:07.799Z,20.21
2023-08-20T14:42:35.808Z,20.08
2023-08-20T14:45:05.111Z,20.03
2023-08-20T14:47:32.707Z,20.05
2023-08-20T14:50:00.242Z,20.16
2023-08-20T14:52:27.716Z,20.16
2023-08-20T14:54:55.173Z,20.24
2023-08-20T14:57:23.040Z,20.20
2023-08-20T14:59:52.474Z,20.16
2023-08-20T15:02:20.284Z,20.06
2023-08-20T15:04:48.005Z,19.92
2023-08-20T15:07:15.723Z,19.90
2023-08-20T15:09:43.666Z,19.67
2023-08-20T15:12:11.507Z,19.75
2023-08-20T15:14:38.998Z,19.69
2023-08-20T15:17:06.765Z,19.66
2023-08-20T15:19:34.626Z,19.52
2023-08-20T15:22:02.121Z,19.72
2023-08-20T15:24:29.848Z,19.85
2023-08-20T15:26:57.349Z,19.83
2023-08-20T15:29:24.813Z,19.81
2023-08-20T15:31:52.941Z,19.59
2023-08-20T15:34:20.548Z,19.58
2023-08-20T15:36:48.104Z,19.58
2023-08-20T15:39:15.598Z,19.58
2023-08-20T15:41:43.323Z,19.43
2023-08-20T15:44:10.842Z,19.49
2023-08-20T15:46:39.128Z,19.27
2023-08-20T15:49:07.228Z,19.26
2023-08-20T15:51:35.987Z,19.52
2023-08-20T15:54:04.342Z,19.51
2023-08-20T15:56:32.172Z,19.60
2023-08-20T15:58:59.956Z,19.61
2023-08-20T16:01:29.363Z,19.54
2023-08-20T16:03:57.357Z,19.36
2023-08-20T16:06:25.654Z,19.51
2023-08-20T16:08:54.330Z,19.51
2023-08-20T16:11:22.007Z,19.56
2023-08-20T16:13:49.499Z,19.29
2023-08-20T16:16:17.370Z,19.16
2023-08-20T16:18:45.177Z,19.18
2023-08-20T16:21:12.664Z,19.32
2023-08-20T16:23:40.887Z,19.38
2023-08-20T16:26:08.667Z,19.36
2023-08-20T16:28:37.130Z,19.25
2023-08-20T16:31:04.888Z,19.24
2023-08-20T16:33:32.791Z,19.40
2023-08-20T16:36:00.412Z,19.38
2023-08-20T16:38:27.878Z,19.40
2023-08-20T16:40:55.519Z,19.31
2023-08-20T16:43:22.989Z,19.42
2023-08-20T16:45:56.562Z,19.29
2023-08-20T16:48:24.327Z,19.32
2023-08-20T16:50:52.383Z,19.31
2023-08-20T16:53:20.125Z,19.44
2023-08-20T16:55:54.639Z,19.37
2023-08-20T16:58:24.124Z,19.43
2023-08-20T17:00:52.465Z,19.25
2023-08-20T17:03:20.292Z,19.32
2023-08-20T17:05:47.818Z,19.41
2023-08-20T17:08:15.520Z,19.38
2023-08-20T17:10:43.180Z,19.46
2023-08-20T17:13:12.532Z,19.36
2023-08-20T17:15:40.430Z,19.40
2023-08-20T17:18:08.794Z,19.48
2023-08-20T17:20:37.758Z,19.45
2023-08-20T17:23:05.534Z,19.41
2023-08-20T17:25:33.056Z,19.45
2023-08-20T17:28:00.604Z,19.34
2023-08-20T17:30:28.256Z,19.25
2023-08-20T17:32:55.815Z,19.22
2023-08-20T17:35:23.441Z,19.26
2023-08-20T17:37:51.261Z,19.25
2023-08-20T17:40:19.038Z,19.16
2023-08-20T17:42:46.556Z,19.17
2023-08-20T17:45:14.231Z,19.27
2023-08-20T17:47:41.916Z,19.23
2023-08-20T17:50:09.826Z,19.12
2023-08-20T17:52:37.894Z,19.15
2023-08-20T17:55:06.012Z,19.29
2023-08-20T17:57:33.555Z,19.34
2023-08-20T18:00:01.135Z,19.32
2023-08-20T18:02:28.946Z,19.38
2023-08-20T18:04:57.012Z,19.37
2023-08-20T18:07:24.647Z,19.33
2023-08-20T18:09:52.130Z,19.16
2023-08-20T18:12:20.057Z,19.17
2023-08-20T18:14:47.786Z,19.08
2023-08-20T18:17:15.663Z,19.10
2023-08-20T18:19:43.422Z,19.15
2023-08-20T18:22:11.173Z,19.03
2023-08-20T18:24:38.919Z,19.06
2023-08-20T18:27:07.050Z,18.93
2023-08-20T18:29:34.713Z,18.87
2023-08-20T18:32:02.341Z,18.90
2023-08-20T18:34:30.075Z,18.90
2023-08-20T18:36:57.839Z,19.04
2023-08-20T18:39:26.298Z,18.96
2023-08-20T18:41:55.065Z,18.99
2023-08-20T18:44:22.893Z,18.92
2023-08-20T18:46:50.634Z,18.78
2023-08-20T18:49:19.484Z,18.86
2023-08-20T18:51:47.490Z,18.84
2023-08-20T18:54:15.478Z,18.87
2023-08-20T18:56:43.322Z,18.90
2023-08-20T18:59:10.946Z,18.90
2023-08-20T19:01:38.949Z,18.79
2023-08-20T19:04:06.641Z,18.78
2023-08-20T19:06:36.176Z,18.88
2023-08-20T19:09:06.602Z,18.78
2023-08-20T19:11:34.704Z,18.83
2023-08-20T19:14:02.914Z,18.72
2023-08-20T19:16:30.871Z,18.83
2023-08-20T19:18:58.469Z,18.77
2023-08-20T19:21:26.489Z,18.66
2023-08-20T19:23:55.232Z,18.73
2023-08-20T19:26:22.935Z,18.66
2023-08-20T19:28:50.980Z,18.71
2023-08-20T19:31:22.993Z,18.69
2023-08-20T19:33:51.203Z,18.63
2023-08-20T19:36:18.840Z,18.61
2023-08-20T19:38:46.485Z,18.69
2023-08-20T19:41:14.545Z,18.64
2023-08-20T19:43:42.262Z,18.64
2023-08-20T19:46:10.069Z,18.68
2023-08-20T19:48:37.745Z,18.68
2023-08-20T19:51:05.324Z,18.75
2023-08-20T19:53:33.220Z,18.78
2023-08-20T19:56:00.857Z,18.68
2023-08-20T19:58:28.479Z,18.67
2023-08-20T20:00:56.780Z,18.68
2023-08-20T20:03:24.612Z,18.72
2023-08-20T20:05:52.380Z,18.79
2023-08-20T20:08:21.766Z,18.74
2023-08-20T20:10:51.812Z,18.67
2023-08-20T20:13:19.551Z,18.61
2023-08-20T20:15:47.881Z,18.73
2023-08-20T20:18:15.602Z,18.66
2023-08-20T20:20:48.841Z,18.59
2023-08-20T20:23:18.055Z,18.58
2023-08-20T20:25:45.687Z,18.64
2023-08-20T20:28:14.864Z,18.64
2023-08-20T20:30:42.754Z,18.57
2023-08-20T20:33:10.569Z,18.66
2023-08-20T20:35:38.149Z,18.66
2023-08-20T20:38:05.790Z,18.71
2023-08-20T20:40:33.574Z,18.58
2023-08-20T20:43:01.114Z,18.63
2023-08-20T20:45:28.769Z,18.55
2023-08-20T20:47:56.357Z,18.53
2023-08-20T20:50:23.889Z,18.57
2023-08-20T20:52:51.474Z,18.64
2023-08-20T20:55:19.199Z,18.66
2023-08-20T20:57:46.744Z,18.54
2023-08-20T21:00:14.377Z,18.59
2023-08-20T21:02:42.218Z,18.45
2023-08-20T21:05:10.373Z,18.54
2023-08-20T21:07:38.043Z,18.52
2023-08-20T21:10:06.553Z,18.51
2023-08-20T21:12:34.692Z,18.58
2023-08-20T21:15:03.026Z,18.56
2023-08-20T21:17:30.931Z,18.59
2023-08-20T21:19:59.254Z,18.56
2023-08-20T21:22:27.029Z,18.47
2023-08-20T21:24:54.622Z,18.59
2023-08-20T21:27:22.176Z,18.56
2023-08-20T21:29:50.010Z,18.45
2023-08-20T21:32:17.550Z,18.46
2023-08-20T21:34:47.570Z,18.53
2023-08-20T21:37:15.294Z,18.46
2023-08-20T21:39:42.934Z,18.49
2023-08-20T21:42:10.366Z,18.57
2023-08-20T21:44:37.801Z,18.64
2023-08-20T21:47:24.413Z,18.47
2023-08-20T21:49:52.397Z,18.40
2023-08-20T21:52:23.406Z,18.41
2023-08-20T21:54:51.633Z,18.55
2023-08-20T21:57:22.795Z,18.53
2023-08-20T21:59:53.528Z,18.56
2023-08-20T22:02:21.077Z,18.54
2023-08-20T22:04:48.641Z,18.45
2023-08-20T22:07:16.420Z,18.49
2023-08-20T22:09:44.225Z,18.58
2023-08-20T22:12:12.058Z,18.61
2023-08-20T22:14:39.664Z,18.41
2023-08-20T22:17:07.528Z,18.45
2023-08-20T22:19:37.330Z,18.43
2023-08-20T22:22:04.978Z,18.42
2023-08-20T22:24:32.438Z,18.23
2023-08-20T22:26:59.948Z,18.34
2023-08-20T22:29:27.464Z,18.38
2023-08-20T22:31:55.075Z,18.43
2023-08-20T22:34:22.555Z,18.49
2023-08-20T22:36:51.224Z,18.43
2023-08-20T22:39:18.915Z,18.26
2023-08-20T22:41:46.386Z,18.16
2023-08-20T22:44:14.257Z,18.21
2023-08-20T22:46:41.692Z,18.21
2023-08-20T22:49:09.258Z,18.19
2023-08-20T22:51:36.777Z,18.29
2023-08-20T22:54:04.397Z,18.29
2023-08-20T22:56:32.133Z,18.21
2023-08-20T22:58:59.872Z,18.33
2023-08-20T23:01:27.668Z,18.19
2023-08-20T23:03:55.174Z,18.17
2023-08-20T23:06:22.821Z,18.14
2023-08-20T23:08:50.309Z,18.05
2023-08-20T23:11:17.884Z,18.06
2023-08-20T23:13:45.601Z,18.03
2023-08-20T23:16:13.474Z,18.03
2023-08-20T23:18:41.400Z,18.09
2023-08-20T23:21:09.261Z,18.15
2023-08-20T23:23:37.018Z,18.16
2023-08-20T23:26:04.530Z,18.13
2023-08-20T23:28:32.073Z,18.16
2023-08-20T23:30:59.643Z,18.14
2023-08-20T23:33:27.116Z,18.03
2023-08-20T23:35:54.603Z,18.04
2023-08-20T23:38:23.994Z,18.03
2023-08-20T23:40:52.856Z,18.12
2023-08-20T23:43:23.192Z,18.11
2023-08-20T23:45:51.011Z,17.99
2023-08-20T23:48:18.576Z,18.04
2023-08-20T23:50:46.511Z,18.07
2023-08-20T23:53:14.460Z,18.09
2023-08-20T23:55:44.197Z,18.09
2023-08-20T23:58:12.064Z,18.00
